• Join FlightAware (Why Join?)
  • Login
  • US Flag 
02:02PM EDT


 

Airport Tracker/Info


-or-


 

Live Flight TrackerFlight Track Log ✈ AAL1326 ✈ 11-Jun-2013 ✈ KORD - KFLL

Flight Track Log - Related Links

Times and Time Zones

All times are in EDT time to prevent confusion due to time zone crossing. See the AAL1326 flight status page for this flight to view local times or setup timezone preferences in your user account.

Time Position Orientation Groundspeed Altitude Reporting Facility
EDT Latitude Longitude Course Direction KTS MPH feet Rate Location/Type
08:14PM 41.9700 -87.8800 182° South 18 21  Level FlightAware
08:15PM 41.9660 -87.8840 217° Southwest 92 106 1,800 Level FlightAware
08:15PM 41.9430 -87.9120 222° Southwest 157 181 1,900 2,520 Climbing FlightAware
08:16PM 41.9320 -87.9260 223° Southwest 166 191 2,700 1,560 Climbing FlightAware
08:16PM 41.9250 -87.9340 220° Southwest 179 206 3,000 1,620 Climbing FlightAware
08:16PM 41.9080 -87.9550 223° Southwest 216 249 3,700 2,460 Climbing FlightAware
08:17PM 41.8890 -87.9770 221° Southwest 239 275 4,600 1,500 Climbing FlightAware
08:17PM 41.8590 -88.0030 213° Southwest 265 305 5,100 660 Climbing FlightAware
08:17PM 41.8440 -88.0060 188° South 270 311 5,100 1,620 Level FlightAware
08:18PM 41.8050 -88.0010 175° South 265 305 6,300 2,280 Climbing FlightAware
08:18PM 41.7700 -87.9960 174° South 284 327 7,400 2,760 Climbing FlightAware
08:19PM 41.7390 -87.9870 168° South 288 331 8,700 2,820 Climbing FlightAware
08:20PM 41.6790 -87.9670 166° South 308 354 10,600 2,580 Climbing FlightAware
08:20PM 41.6160 -87.9460 166° South 328 377 12,500 1,980 Climbing FlightAware
08:21PM 41.5600 -87.9270 166° South 371 427 13,300 1,860 Climbing FlightAware
08:22PM 41.4810 -87.9010 166° South 397 457 15,100 2,280 Climbing FlightAware
08:22PM 41.4000 -87.8810 170° South 412 474 16,700 2,400 Climbing FlightAware
08:23PM 41.3310 -87.8850 182° South 414 476 18,300 2,460 Climbing FlightAware
08:24PM 41.2400 -87.8920 183° South 430 495 20,100 2,160 Climbing FlightAware
08:24PM 41.1530 -87.8900 179° South 442 509 21,600 2,040 Climbing FlightAware
08:25PM 41.0670 -87.8870 178° South 449 517 23,100 2,160 Climbing FlightAware
08:26PM 40.9940 -87.8850 179° South 454 522 24,400 1,920 Climbing FlightAware
08:27PM 40.8850 -87.8810 178° South 462 532 25,900 1,740 Climbing FlightAware
08:27PM 40.7990 -87.8790 179° South 469 540 27,100 1,620 Climbing FlightAware
08:28PM 40.7070 -87.8760 179° South 477 549 28,100 1,440 Climbing FlightAware
08:29PM 40.6100 -87.8730 179° South 484 557 29,200 1,320 Climbing FlightAware
08:29PM 40.5360 -87.8710 179° South 489 563 29,900 1,380 Climbing FlightAware
08:30PM 40.4340 -87.8680 179° South 491 565 31,000 1,500 Climbing FlightAware
08:31PM 40.3260 -87.8650 179° South 492 566 32,200 1,500 Climbing FlightAware
08:31PM 40.2340 -87.8610 178° South 489 563 33,200 1,560 Climbing FlightAware
08:32PM 40.1340 -87.8560 178° South 485 558 34,400 1,380 Climbing FlightAware
08:33PM 40.0460 -87.8520 178° South 483 556 35,200 1,200 Climbing FlightAware
08:34PM 39.9460 -87.8480 178° South 482 555 36,100 1,080 Climbing FlightAware
08:34PM 39.8530 -87.8440 178° South 481 554 36,800 660 Climbing FlightAware
08:35PM 39.7690 -87.8400 178° South 483 556 37,000 120 Climbing FlightAware
08:36PM 39.7030 -87.8370 178° South 484 557 37,000  Level FlightAware
08:36PM 39.5710 -87.8320 178° South 486 559 37,000  Level FlightAware
08:37PM 39.4830 -87.8240 176° South 492 566 37,000  Level FlightAware
08:38PM 39.3830 -87.7920 166° South 496 571 37,000  Level FlightAware
08:38PM 39.3050 -87.7640 164° South 497 572 37,000  Level FlightAware
08:39PM 39.2020 -87.7270 164° South 498 573 37,000  Level FlightAware
08:40PM 39.1040 -87.6920 165° South 498 573 37,000  Level FlightAware
08:41PM 39.0210 -87.6630 165° South 499 574 37,000  Level FlightAware
08:41PM 38.9230 -87.6280 164° South 498 573 37,000  Level FlightAware
08:42PM 38.8230 -87.5940 165° South 497 572 37,000  Level FlightAware
08:43PM 38.7340 -87.5630 165° South 496 571 37,000  Level FlightAware
08:43PM 38.6380 -87.5290 165° South 496 571 37,000  Level FlightAware
08:44PM 38.5500 -87.4980 165° South 495 570 37,000  Level FlightAware
08:45PM 38.4510 -87.4630 165° South 494 568 37,000  Level FlightAware
08:45PM 38.3680 -87.4310 163° South 496 571 37,000  Level FlightAware
08:46PM 38.2740 -87.3700 153° Southeast 497 572 37,000  Level FlightAware
08:47PM 38.1930 -87.3150 152° Southeast 495 570 37,000  Level FlightAware
08:47PM 38.1200 -87.2660 152° Southeast 494 568 37,000  Level FlightAware
08:48PM 38.0210 -87.2050 154° Southeast 494 568 37,000  Level FlightAware
08:49PM 37.9460 -87.1610 155° Southeast 494 568 37,000  Level FlightAware
08:50PM 37.8480 -87.1030 155° Southeast 492 566 37,000  Level FlightAware
08:50PM 37.7640 -87.0540 155° Southeast 494 568 37,000  Level FlightAware
08:51PM 37.6780 -87.0020 154° Southeast 496 571 37,000  Level FlightAware
08:52PM 37.6165 -86.9652 155° Southeast 497 572 37,000  Level FlightAware ADS-B
08:52PM 37.5496 -86.9257 155° Southeast 497 572 37,000  Level FlightAware ADS-B
08:53PM 37.4110 -86.8450 155° Southeast 498 573 37,000  Level FlightAware
08:54PM 37.3330 -86.7990 155° Southeast 498 573 37,000  Level FlightAware
08:54PM 37.2803 -86.7678 155° Southeast 498 573 37,000  Level FlightAware ADS-B
08:55PM 37.2044 -86.7236 155° Southeast 499 574 37,000  Level FlightAware ADS-B
08:55PM 37.1380 -86.6847 155° Southeast 499 574 37,000  Level FlightAware ADS-B
08:56PM 37.0462 -86.6311 155° Southeast 497 572 37,000  Level FlightAware ADS-B
08:57PM 36.9724 -86.5881 155° Southeast 497 572 37,000  Level FlightAware ADS-B
08:57PM 36.9093 -86.5516 155° Southeast 496 571 37,000  Level FlightAware ADS-B
08:58PM 36.8413 -86.5124 155° Southeast 495 570 37,000  Level FlightAware ADS-B
08:58PM 36.7793 -86.4768 155° Southeast 490 564 37,000  Level FlightAware ADS-B
08:59PM 36.6920 -86.4260 155° Southeast 489 563 37,000  Level FlightAware
09:00PM 36.6350 -86.3930 155° Southeast 489 563 37,000  Level FlightAware
09:00PM 36.5200 -86.3280 156° South 486 559 37,000  Level FlightAware
09:01PM 36.4713 -86.2996 155° Southeast 487 560 37,000  Level FlightAware ADS-B
09:01PM 36.4088 -86.2639 155° Southeast 486 559 37,000  Level FlightAware ADS-B
09:02PM 36.3466 -86.2285 155° Southeast 485 558 37,000  Level FlightAware ADS-B
09:02PM 36.2530 -86.1760 156° South 483 556 37,000  Level FlightAware
09:03PM 36.2090 -86.1503 155° Southeast 482 555 37,000  Level FlightAware ADS-B
09:03PM 36.1466 -86.1149 155° Southeast 482 555 37,000  Level FlightAware ADS-B
09:04PM 36.0832 -86.0791 155° Southeast 482 555 37,000  Level FlightAware ADS-B
09:04PM 36.0217 -86.0443 155° Southeast 482 555 37,000  Level FlightAware ADS-B
09:05PM 35.9522 -86.0050 155° Southeast 485 558 37,000  Level FlightAware ADS-B
09:06PM 35.8575 -85.9519 156° South 488 562 37,000  Level FlightAware ADS-B
09:06PM 35.7941 -85.9163 156° South 487 560 37,000  Level FlightAware ADS-B
09:07PM 35.7309 -85.8809 156° South 488 562 37,000  Level FlightAware ADS-B
09:07PM 35.6684 -85.8459 156° South 488 562 37,000  Level FlightAware ADS-B
09:08PM 35.5720 -85.7920 156° South 488 562 37,000  Level FlightAware
09:09PM 35.4820 -85.7420 156° South 487 560 37,000  Level FlightAware
09:10PM 35.3910 -85.6920 156° South 487 560 37,000  Level FlightAware
09:10PM 35.3298 -85.6576 155° Southeast 488 562 37,000  Level FlightAware ADS-B
09:11PM 35.2630 -85.6207 156° South 487 560 37,000  Level FlightAware ADS-B
09:11PM 35.2003 -85.5860 156° South 489 563 37,000 60 Level FlightAware ADS-B
09:12PM 35.1366 -85.5508 156° South 493 567 37,100 660 Climbing FlightAware ADS-B
09:12PM 35.0538 -85.5052 156° South 490 564 37,800 1,020 Climbing FlightAware ADS-B
09:13PM 34.9917 -85.4712 156° South 488 562 38,300 900 Climbing FlightAware ADS-B
09:13PM 34.9290 -85.4368 156° South 489 563 38,700 660 Climbing FlightAware ADS-B
09:14PM 34.8669 -85.4029 156° South 487 560 39,000 240 Climbing FlightAware ADS-B
09:14PM 34.7941 -85.3631 156° South 482 555 39,000  Level FlightAware ADS-B
09:15PM 34.7138 -85.3190 156° South 476 548 39,000  Level FlightAware ADS-B
09:16PM 34.6526 -85.2857 156° South 474 545 39,000  Level FlightAware ADS-B
09:16PM 34.5887 -85.2510 156° South 474 545 39,000  Level FlightAware ADS-B
09:17PM 34.4530 -85.1770 156° South 474 545 39,000  Level FlightAware
09:18PM 34.3979 -85.1477 156° South 474 545 39,000  Level FlightAware ADS-B
09:18PM 34.3366 -85.1148 156° South 474 545 39,000  Level FlightAware ADS-B
09:19PM 34.2570 -85.0719 156° South 473 544 39,000  Level FlightAware ADS-B
09:19PM 34.1881 -85.0350 156° South 472 543 39,000  Level FlightAware ADS-B
09:20PM 34.1275 -85.0023 156° South 472 543 39,000  Level FlightAware ADS-B
09:21PM 34.0560 -84.9639 156° South 471 542 39,000  Level FlightAware ADS-B
09:21PM 33.9893 -84.9282 156° South 471 542 39,000  Level FlightAware ADS-B
09:22PM 33.9059 -84.8838 156° South 470 541 39,000  Level FlightAware ADS-B
09:22PM 33.8402 -84.8489 156° South 468 539 39,000  Level FlightAware ADS-B
09:23PM 33.7730 -84.8131 156° South 468 539 39,000  Level FlightAware ADS-B
09:23PM 33.7109 -84.7800 156° South 468 539 39,000  Level FlightAware ADS-B
09:24PM 33.6400 -84.7425 156° South 467 537 39,000  Level FlightAware ADS-B
09:25PM 33.5540 -84.6970 156° South 467 537 39,000  Level FlightAware ADS-B
09:26PM 33.4240 -84.6280 156° South 464 534 39,000  Level FlightAware
09:27PM 33.3410 -84.5850 157° South 462 532 39,000  Level FlightAware
09:27PM 33.2620 -84.5430 156° South 461 531 39,000  Level FlightAware
09:28PM 33.1740 -84.4970 156° South 458 527 39,000  Level FlightAware
09:29PM 33.0970 -84.4570 156° South 458 527 39,000  Level FlightAware
09:29PM 33.0120 -84.4120 156° South 458 527 39,000  Level FlightAware
09:30PM 32.9310 -84.3700 156° South 460 529 39,000  Level FlightAware
09:31PM 32.8480 -84.3270 156° South 463 533 39,000  Level FlightAware
09:32PM 32.7360 -84.2690 156° South 467 537 39,000  Level FlightAware
09:32PM 32.6640 -84.2310 156° South 472 543 39,000  Level FlightAware
09:33PM 32.5660 -84.1810 157° South 477 549 39,000  Level FlightAware
09:34PM 32.4850 -84.1390 156° South 478 550 39,000  Level FlightAware
09:34PM 32.4010 -84.0960 157° South 479 551 39,000  Level FlightAware
09:35PM 32.3360 -84.0630 157° South 480 552 39,000  Level FlightAware
09:36PM 32.2070 -83.9960 156° South 480 552 39,000  Level FlightAware
09:37PM 32.1150 -83.9500 157° South 482 555 39,000  Level FlightAware
09:37PM 32.0330 -83.9080 157° South 485 558 39,000  Level FlightAware
09:39PM 31.8960 -83.8370 156° South 485 558 39,000  Level FlightAware
09:39PM 31.8310 -83.8030 156° South 485 558 39,000  Level FlightAware
09:40PM 31.7540 -83.7630 156° South 485 558 39,000  Level FlightAware
09:41PM 31.6920 -83.7300 156° South 485 558 39,000  Level FlightAware
09:41PM 31.6080 -83.6860 156° South 485 558 39,000  Level FlightAware
09:42PM 31.5280 -83.6450 156° South 485 558 39,000  Level FlightAware
09:43PM 31.4670 -83.6130 156° South 485 558 39,000  Level FlightAware
09:44PM 31.3820 -83.5680 156° South 485 558 39,000  Level FlightAware
09:44PM 31.1420 -83.5770 182° South 477 549 39,000  Level FlightAware
09:45PM 31.0550 -83.5470 164° South 476 548 39,000  Level FlightAware
09:46PM 30.9700 -83.5170 163° South 473 544 39,000  Level FlightAware
09:47PM 30.8840 -83.4870 163° South 473 544 39,000  Level FlightAware
09:47PM 30.7950 -83.4560 163° South 470 541 39,000  Level FlightAware
09:48PM 30.6740 -83.4160 164° South 469 540 39,000  Level FlightAware
09:49PM 30.6070 -83.3920 163° South 469 540 39,000  Level FlightAware
09:50PM 30.5440 -83.3690 163° South 469 540 39,000  Level FlightAware
09:51PM 30.4610 -83.3400 163° South 469 540 39,000  Level FlightAware
09:51PM 30.3970 -83.3170 163° South 469 540 39,000  Level FlightAware
09:52PM 30.3110 -83.2870 163° South 469 540 39,000  Level FlightAware
09:53PM 30.2440 -83.2630 163° South 469 540 39,000  Level FlightAware
09:53PM 30.1780 -83.2400 163° South 469 540 39,000  Level FlightAware
09:54PM 30.0940 -83.2100 163° South 469 540 39,000  Level FlightAware
09:55PM 30.0300 -83.1880 163° South 469 540 39,000  Level FlightAware
09:56PM 29.9440 -83.1570 163° South 469 540 39,000  Level FlightAware
09:56PM 29.8790 -83.1340 163° South 469 540 39,000  Level FlightAware
09:57PM 29.7970 -83.1060 163° South 469 540 39,000  Level FlightAware
09:57PM 29.7360 -83.0840 163° South 469 540 39,000  Level FlightAware
09:58PM 29.6490 -83.0530 163° South 469 540 39,000  Level FlightAware
10:02PM 28.9830 -82.8470 165° South 462 532 39,000  Level FlightAware
10:02PM 28.8820 -82.8140 164° South 462 532 39,000  Level FlightAware
10:03PM 28.7880 -82.7830 164° South 462 532 39,000  Level FlightAware
10:04PM 28.7230 -82.7620 164° South 462 532 39,000  Level FlightAware
10:04PM 28.6310 -82.7320 164° South 461 531 39,000  Level FlightAware
10:05PM 28.5340 -82.6990 163° South 457 526 39,000  Level FlightAware
10:06PM 28.4480 -82.6720 165° South 456 525 39,000  Level FlightAware
10:07PM 28.3690 -82.6460 164° South 456 525 39,000  Level FlightAware
10:07PM 28.2830 -82.6180 164° South 459 528 39,000  Level FlightAware
10:08PM 28.1930 -82.5880 164° South 464 534 39,000  Level FlightAware
10:09PM 28.1060 -82.5600 164° South 466 536 39,000  Level FlightAware
10:10PM 28.0090 -82.5290 164° South 470 541 39,000  Level FlightAware
10:10PM 27.9290 -82.5010 163° South 470 541 39,000  Level FlightAware
10:11PM 27.8200 -82.4610 162° South 469 540 39,000  Level FlightAware
10:12PM 27.7380 -82.4150 154° Southeast 474 545 39,000  Level FlightAware
10:12PM 27.6590 -82.3630 150° Southeast 473 544 39,000  Level FlightAware
10:13PM 27.5730 -82.3070 150° Southeast 471 542 39,000 -120 Level FlightAware
10:14PM 27.5030 -82.2610 150° Southeast 471 542 38,900 -600 Descending FlightAware
10:15PM 27.4200 -82.2070 150° Southeast 469 540 38,200 -960 Descending FlightAware
10:15PM 27.3460 -82.1590 150° Southeast 475 547 37,600 -960 Descending FlightAware
10:16PM 27.2710 -82.1110 150° Southeast 484 557 37,000 -1,320 Descending FlightAware
10:17PM 27.1830 -82.0540 150° Southeast 474 545 35,800 -2,100 Descending FlightAware
10:17PM 27.1070 -82.0050 150° Southeast 469 540 34,000 -2,760 Descending FlightAware
10:18PM 27.0300 -81.9400 143° Southeast 472 543 32,000 -2,760 Descending FlightAware
10:19PM 26.9660 -81.8730 137° Southeast 460 529 30,200 -2,640 Descending FlightAware
10:19PM 26.9060 -81.8090 136° Southeast 446 513 28,500 -2,220 Descending FlightAware
10:20PM 26.8570 -81.7570 137° Southeast 442 509 27,100 -1,020 Descending FlightAware
10:21PM 26.8080 -81.7040 136° Southeast 442 509 27,100  Level FlightAware
10:22PM 26.7500 -81.6400 135° Southeast 442 509 27,100  Level FlightAware
10:22PM 26.7030 -81.5900 136° Southeast 442 509 27,100  Level FlightAware
10:23PM 26.6430 -81.5250 136° Southeast 442 509 27,100  Level FlightAware
10:24PM 26.5980 -81.4770 136° Southeast 442 509 27,100 -4,680 Level FlightAware
10:26PM 26.3300 -81.3240 153° Southeast 371 427 14,300 -4,860 Descending FlightAware
10:26PM 26.2920 -81.2620 124° Southeast 335 386 13,500 -1,380 Descending FlightAware
10:27PM 26.2540 -81.2020 125° Southeast 322 371 12,400 -1,560 Descending FlightAware
10:28PM 26.2170 -81.1440 125° Southeast 320 368 11,300 -1,260 Descending FlightAware
10:28PM 26.1880 -81.0980 125° Southeast 312 359 10,800 -1,140 Descending FlightAware
10:29PM 26.1540 -81.0450 126° Southeast 309 356 9,900 -900 Descending FlightAware
10:29PM 26.1370 -81.0190 126° Southeast 289 333 9,900  Level FlightAware
10:30PM 26.1140 -80.9820 125° Southeast 289 333 9,900 -180 Level FlightAware
10:30PM 26.1070 -80.9660 116° Southeast 287 330 9,800 -720 Descending FlightAware
10:31PM 26.1040 -80.9400 97° East 287 330 9,400 -1,260 Descending FlightAware
10:31PM 26.1020 -80.8830 92° East 281 323 8,600 -1,440 Descending FlightAware
10:31PM 26.1020 -80.8710 90° East 280 322 8,500 -1,200 Descending FlightAware
10:32PM 26.0990 -80.8250 94° East 274 315 7,800 -1,320 Descending FlightAware
10:32PM 26.0980 -80.7890 92° East 270 311 7,300 -1,200 Descending FlightAware
10:32PM 26.0970 -80.7700 93° East 267 307 7,000 -1,140 Descending FlightAware
10:33PM 26.0950 -80.7300 93° East 261 300 6,500 -1,080 Descending FlightAware
10:33PM 26.0940 -80.7090 93° East 258 297 6,200 -1,140 Descending FlightAware
10:34PM 26.0920 -80.6820 95° East 254 292 5,800 -1,140 Descending FlightAware
10:34PM 26.0900 -80.6400 93° East 248 285 5,200 -1,080 Descending FlightAware
10:35PM 26.0890 -80.5870 91° East 241 277 4,500 -1,020 Descending FlightAware
10:35PM 26.0870 -80.5500 93° East 241 277 4,000 -960 Descending FlightAware
10:35PM 26.0860 -80.5310 93° East 241 277 3,800 -960 Descending FlightAware
10:36PM 26.0840 -80.5000 94° East 241 277 3,400 -660 Descending FlightAware
10:36PM 26.0820 -80.4630 93° East 240 276 3,200 -360 Descending FlightAware
10:37PM 26.0810 -80.4320 92° East 239 275 3,100 -360 Descending FlightAware
10:37PM 26.0790 -80.3960 94° East 238 274 2,900 -240 Descending FlightAware
10:38PM 26.0780 -80.3590 92° East 230 265 2,900 -120 Level FlightAware
10:38PM 26.0780 -80.3290 90° East 221 254 2,800 -780 Descending FlightAware
10:39PM 26.0780 -80.2970 90° East 213 245 2,200 -1,140 Descending FlightAware
10:39PM 26.0770 -80.2670 92° East 183 211 1,700 -900 Descending FlightAware
10:39PM 26.0770 -80.2570 90° East 177 204 1,600 -900 Descending FlightAware
10:40PM 26.0770 -80.2310 90° East 162 186 1,100 -900 Descending FlightAware
10:41PM 26.0770 -80.2000 90° East 148 170 600 -840 Descending FlightAware
10:41PM 26.0770 -80.1810 90° East 147 169 200 -480 Descending FlightAware
10:41PM 26.0770 -80.1630 90° East 147 169 200  Level FlightAware